Framingham Center, Massachusetts
Current Conditions -  °F | °C
As of 4:56 AM on Thursday 27 Nov 2014 (Local Time) from KBED Reporting Station
Overcast Overcast  
Wind Chill: 26°   Ceiling: 7000
Heat Index: 32°   Visibility: 10mi
Dew Point: 30°   Wind: 7mph
Humidity: 92%   Direction: 290°WNW
Pressure: 29.8"   Gusts: NA
Location:  42.3203°N, 71.4404°W
Report Text: KBED 270956Z 29006KT 10SM FEW012 OVC070 00/M01 A2980 RMK AO2 SNE05 SLP108 P0000 T00001011
Loading
Personal Weather Stations






























Interactive Weather Map New forecast layout! Learn more

10-Day Weather Forecast

Advertisements
Track Severe Weather on mobile